createdAt,value
2022-12-08T00:00:48.962Z,948.9486084
2022-12-08T00:01:49.942Z,948.9414673
2022-12-08T00:02:51.084Z,948.9543457
2022-12-08T00:03:51.537Z,948.9082642
2022-12-08T00:04:52.188Z,948.8986206
2022-12-08T00:05:53.056Z,948.9204712
2022-12-08T00:06:54.719Z,948.930603
2022-12-08T00:07:55.344Z,948.888855
2022-12-08T00:08:55.857Z,948.8439331
2022-12-08T00:09:56.406Z,948.8973999
2022-12-08T00:10:56.948Z,948.8695068
2022-12-08T00:11:58.182Z,948.887085
2022-12-08T00:12:58.911Z,948.8449707
2022-12-08T00:14:00.370Z,948.8613892
2022-12-08T00:15:01.274Z,948.822998
2022-12-08T00:16:01.507Z,948.831543
2022-12-08T00:17:02.189Z,948.8091431
2022-12-08T00:18:02.649Z,948.7999268
2022-12-08T00:19:03.205Z,948.8157959
2022-12-08T00:20:03.751Z,948.805603
2022-12-08T00:21:04.770Z,948.7712402
2022-12-08T00:22:36.482Z,948.7563477
2022-12-08T00:23:37.029Z,948.779541
2022-12-08T00:24:37.635Z,948.7457886
2022-12-08T00:25:38.192Z,948.7351685
2022-12-08T00:26:38.742Z,948.6915894
2022-12-08T00:27:40.161Z,948.6900024
2022-12-08T00:28:40.672Z,948.6663818
2022-12-08T00:29:41.216Z,948.6696167
2022-12-08T00:30:41.783Z,948.6707764
2022-12-08T00:31:42.431Z,948.6953125
2022-12-08T00:32:43.446Z,948.6948242
2022-12-08T00:33:43.971Z,948.6445313
2022-12-08T00:34:44.690Z,948.7033081
2022-12-08T00:35:45.142Z,948.6777954
2022-12-08T00:36:45.740Z,948.671936
2022-12-08T00:37:46.356Z,948.6574707
2022-12-08T00:38:46.825Z,948.6681519
2022-12-08T00:39:47.372Z,948.6601563
2022-12-08T00:40:47.921Z,948.6275024
2022-12-08T00:41:48.517Z,948.5661011
2022-12-08T00:42:49.934Z,948.6077881
2022-12-08T00:43:50.490Z,948.5992432
2022-12-08T00:44:51.056Z,948.6199951
2022-12-08T00:45:51.709Z,948.6018677
2022-12-08T00:46:52.499Z,948.6013794
2022-12-08T00:47:53.032Z,948.5873413
2022-12-08T00:48:53.610Z,948.6012573
2022-12-08T00:49:54.197Z,948.5770264
2022-12-08T00:50:54.724Z,948.5722656
2022-12-08T00:51:55.324Z,948.5759888
2022-12-08T00:52:56.548Z,948.5888062
2022-12-08T00:53:57.126Z,948.5653076
2022-12-08T00:54:57.704Z,948.5853882
2022-12-08T00:55:58.250Z,948.5731201
2022-12-08T00:56:58.871Z,948.5921631
2022-12-08T00:58:00.136Z,948.5761719
2022-12-08T00:59:00.661Z,948.5761719
2022-12-08T01:00:01.668Z,948.5864258
2022-12-08T01:01:01.922Z,948.5959473
2022-12-08T01:02:03.141Z,948.5675659
2022-12-08T01:03:04.365Z,948.5948486
2022-12-08T01:04:35.972Z,948.5957642
2022-12-08T01:05:36.632Z,948.571228
2022-12-08T01:06:37.204Z,948.5415039
2022-12-08T01:07:37.843Z,948.529541
2022-12-08T01:08:39.154Z,948.5119019
2022-12-08T01:09:39.678Z,948.5847778
2022-12-08T01:10:40.314Z,948.5559082
2022-12-08T01:11:40.887Z,948.5535889
2022-12-08T01:12:42.126Z,948.5734863
2022-12-08T01:13:42.745Z,948.5541992
2022-12-08T01:14:43.282Z,948.5396729
2022-12-08T01:15:43.780Z,948.5379639
2022-12-08T01:16:44.451Z,948.5900269
2022-12-08T01:17:44.923Z,948.555481
2022-12-08T01:18:45.518Z,948.5426636
2022-12-08T01:19:46.041Z,948.5722046
2022-12-08T01:20:46.623Z,948.5861206
2022-12-08T01:21:47.241Z,948.5801392
2022-12-08T01:22:48.623Z,948.59552
2022-12-08T01:23:49.271Z,948.5773926
2022-12-08T01:24:49.807Z,948.5865479
2022-12-08T01:25:50.372Z,948.5753174
2022-12-08T01:26:50.954Z,948.5726318
2022-12-08T01:27:52.139Z,948.5307617
2022-12-08T01:28:53.065Z,948.5350952
2022-12-08T01:29:53.609Z,948.5625
2022-12-08T01:30:54.999Z,948.5111694
2022-12-08T01:31:55.545Z,948.5357666
2022-12-08T01:32:56.662Z,948.5448608
2022-12-08T01:33:57.409Z,948.5154419
2022-12-08T01:34:57.978Z,948.4833374
2022-12-08T01:35:58.584Z,948.4890747
2022-12-08T01:36:59.179Z,948.473877
2022-12-08T01:37:59.808Z,948.4787598
2022-12-08T01:39:00.508Z,948.4402466
2022-12-08T01:40:01.531Z,948.4359131
2022-12-08T01:41:01.676Z,948.4882813
2022-12-08T01:42:02.277Z,948.4536133
2022-12-08T01:43:03.879Z,948.4487305
2022-12-08T01:44:35.676Z,948.397522
2022-12-08T01:45:35.977Z,948.3909302
2022-12-08T01:46:36.730Z,948.3814697
2022-12-08T01:47:37.214Z,948.3527832
2022-12-08T01:48:37.760Z,948.3933105
2022-12-08T01:49:38.466Z,948.321167
2022-12-08T01:50:38.965Z,948.3234253
2022-12-08T01:51:39.579Z,948.3317261
2022-12-08T01:52:40.903Z,948.3481445
2022-12-08T01:53:41.439Z,948.3162231
2022-12-08T01:54:42.978Z,948.3013916
2022-12-08T01:55:43.547Z,948.3272095
2022-12-08T01:56:44.175Z,948.3426514
2022-12-08T01:57:44.839Z,948.307373
2022-12-08T01:58:45.427Z,948.2792358
2022-12-08T01:59:47.041Z,948.3261719
2022-12-08T02:00:47.528Z,948.2904663
2022-12-08T02:01:48.290Z,948.3118896
2022-12-08T02:02:49.724Z,948.2980957
2022-12-08T02:03:50.383Z,948.3162231
2022-12-08T02:04:50.996Z,948.305603
2022-12-08T02:05:51.490Z,948.3082886
2022-12-08T02:06:52.562Z,948.3195801
2022-12-08T02:07:53.197Z,948.3043213
2022-12-08T02:08:53.788Z,948.3150024
2022-12-08T02:09:54.436Z,948.2653198
2022-12-08T02:10:54.965Z,948.2615356
2022-12-08T02:11:55.599Z,948.2637329
2022-12-08T02:12:57.181Z,948.2337646
2022-12-08T02:13:57.797Z,948.227356
2022-12-08T02:15:03.406Z,948.1878052
2022-12-08T02:15:59.044Z,948.1798706
2022-12-08T02:16:59.589Z,948.1375732
2022-12-08T02:18:00.207Z,948.1294556
2022-12-08T02:19:29.283Z,948.1146851
2022-12-08T02:20:01.842Z,948.0797729
2022-12-08T02:21:01.996Z,948.0454712
2022-12-08T02:22:02.605Z,948.0800781
2022-12-08T02:23:34.229Z,948.0843506
2022-12-08T02:24:35.425Z,948.0901489
2022-12-08T02:25:36.010Z,948.0905762
2022-12-08T02:26:36.513Z,948.1040649
2022-12-08T02:27:37.077Z,948.1081543
2022-12-08T02:28:38.496Z,948.1199951
2022-12-08T02:29:39.657Z,948.0871582
2022-12-08T02:30:40.296Z,948.0909424
2022-12-08T02:31:40.826Z,948.0460815
2022-12-08T02:32:41.373Z,948.0081177
2022-12-08T02:33:42.942Z,948.0065918
2022-12-08T02:34:43.570Z,947.9953003
2022-12-08T02:35:44.248Z,947.9728394
2022-12-08T02:36:44.840Z,947.9952393
2022-12-08T02:37:45.467Z,947.9689331
2022-12-08T02:38:46.021Z,947.944397
2022-12-08T02:39:46.693Z,947.9394531
2022-12-08T02:40:47.414Z,947.9586792
2022-12-08T02:41:48.065Z,947.9127197
2022-12-08T02:42:48.726Z,947.9154663
2022-12-08T02:43:49.935Z,947.9073486
2022-12-08T02:44:50.455Z,947.9057617
2022-12-08T02:45:51.332Z,947.8737793
2022-12-08T02:46:51.626Z,947.8769531
2022-12-08T02:47:52.218Z,947.8620605
2022-12-08T02:48:53.004Z,947.8508301
2022-12-08T02:49:53.534Z,947.8493652
2022-12-08T02:50:54.131Z,947.8461914
2022-12-08T02:51:54.689Z,947.8206177
2022-12-08T02:52:55.215Z,947.7815552
2022-12-08T02:53:56.630Z,947.7991333
2022-12-08T02:54:57.186Z,947.7371826
2022-12-08T02:55:57.715Z,947.7597046
2022-12-08T02:56:58.292Z,947.7751465
2022-12-08T02:57:58.809Z,947.7478027
2022-12-08T02:58:59.399Z,947.7340698
2022-12-08T03:00:01.024Z,947.715332
2022-12-08T03:01:01.549Z,947.6981201
2022-12-08T03:02:02.276Z,947.6203003
2022-12-08T03:03:34.140Z,947.6459351
2022-12-08T03:04:34.713Z,947.626709
2022-12-08T03:05:36.183Z,947.625
2022-12-08T03:06:36.894Z,947.6473999
2022-12-08T03:07:37.381Z,947.6057739
2022-12-08T03:08:37.918Z,947.6138306
2022-12-08T03:09:38.596Z,947.6242676
2022-12-08T03:10:39.931Z,947.5687256
2022-12-08T03:11:40.468Z,947.6195068
2022-12-08T03:12:41.030Z,947.5698242
2022-12-08T03:13:42.384Z,947.5834351
2022-12-08T03:14:42.965Z,947.5368652
2022-12-08T03:15:43.575Z,947.590332
2022-12-08T03:16:44.150Z,947.532959
2022-12-08T03:17:44.639Z,947.5153198
2022-12-08T03:18:45.186Z,947.4765625
2022-12-08T03:19:45.817Z,947.4866943
2022-12-08T03:20:46.449Z,947.4900513
2022-12-08T03:21:47.174Z,947.4629517
2022-12-08T03:22:47.661Z,947.4678955
2022-12-08T03:23:48.880Z,947.4611816
2022-12-08T03:24:49.588Z,947.4824829
2022-12-08T03:25:50.300Z,947.4414673
2022-12-08T03:26:51.022Z,947.4254761
2022-12-08T03:27:51.610Z,947.4360962
2022-12-08T03:28:53.139Z,947.4346924
2022-12-08T03:29:53.744Z,947.4501343
2022-12-08T03:30:54.549Z,947.444397
2022-12-08T03:31:54.963Z,947.4572144
2022-12-08T03:32:55.502Z,947.4940796
2022-12-08T03:33:56.959Z,947.4460449
2022-12-08T03:34:57.557Z,947.4668579
2022-12-08T03:35:58.195Z,947.4084473
2022-12-08T03:36:58.826Z,947.3554688
2022-12-08T03:37:59.351Z,947.3892212
2022-12-08T03:38:59.997Z,947.3545532
2022-12-08T03:40:00.536Z,947.3602295
2022-12-08T03:41:02.364Z,947.3457642
2022-12-08T03:42:33.467Z,947.335144
2022-12-08T03:43:34.673Z,947.3602295
2022-12-08T03:44:35.339Z,947.3400269
2022-12-08T03:45:36.267Z,947.3473511
2022-12-08T03:46:37.068Z,947.3468018
2022-12-08T03:47:37.708Z,947.3685913
2022-12-08T03:48:38.270Z,947.340332
2022-12-08T03:49:38.857Z,947.3552856
2022-12-08T03:50:39.493Z,947.3297729
2022-12-08T03:51:40.107Z,947.3343506
2022-12-08T03:52:40.740Z,947.2751465
2022-12-08T03:53:42.210Z,947.2971802
2022-12-08T03:54:42.825Z,947.2752075
2022-12-08T03:55:43.456Z,947.2362671
2022-12-08T03:56:44.037Z,947.2379761
2022-12-08T03:57:44.678Z,947.2213135
2022-12-08T03:58:46.115Z,947.2262573
2022-12-08T03:59:46.717Z,947.2370605
2022-12-08T04:00:47.389Z,947.1835938
2022-12-08T04:01:48.115Z,947.1867676
2022-12-08T04:02:48.767Z,947.1420288
2022-12-08T04:03:50.129Z,947.1693726
2022-12-08T04:04:50.727Z,947.1400146
2022-12-08T04:05:51.456Z,947.1668091
2022-12-08T04:06:52.400Z,947.163147
2022-12-08T04:07:53.188Z,947.1604004
2022-12-08T04:08:54.468Z,947.1235352
2022-12-08T04:09:55.122Z,947.0979614
2022-12-08T04:10:55.692Z,947.0643921
2022-12-08T04:11:56.420Z,947.0761108
2022-12-08T04:12:57.186Z,947.0803223
2022-12-08T04:13:58.616Z,947.065918
2022-12-08T04:14:59.273Z,947.085083
2022-12-08T04:15:59.901Z,947.0409546
2022-12-08T04:17:00.616Z,947.095459
2022-12-08T04:18:01.311Z,947.0465698
2022-12-08T04:19:32.503Z,947.0327148
2022-12-08T04:20:33.102Z,947.0402832
2022-12-08T04:21:34.605Z,947.0343018
2022-12-08T04:22:35.254Z,947.0371094
2022-12-08T04:23:36.697Z,947.0529785
2022-12-08T04:24:37.414Z,947.0568848
2022-12-08T04:25:37.998Z,947.0456543
2022-12-08T04:26:38.584Z,947.0189209
2022-12-08T04:27:39.134Z,947.0140381
2022-12-08T04:28:39.995Z,947.0374756
2022-12-08T04:29:41.457Z,947.0477295
2022-12-08T04:30:42.112Z,947.0278931
2022-12-08T04:31:42.819Z,947.0056152
2022-12-08T04:32:47.330Z,946.9824829
2022-12-08T04:33:44.712Z,946.9472046
2022-12-08T04:34:45.366Z,946.960144
2022-12-08T04:35:46.070Z,946.9640503
2022-12-08T04:36:46.747Z,946.9522705
2022-12-08T04:37:47.336Z,946.9500732
2022-12-08T04:38:48.040Z,946.8925171
2022-12-08T04:39:48.701Z,946.9196777
2022-12-08T04:40:49.421Z,946.930481
2022-12-08T04:41:50.120Z,946.9480591
2022-12-08T04:42:50.782Z,946.9439087
2022-12-08T04:43:52.541Z,946.9470215
2022-12-08T04:44:53.342Z,946.9631348
2022-12-08T04:45:54.016Z,946.9324951
2022-12-08T04:46:54.866Z,946.9519653
2022-12-08T04:47:55.535Z,946.9331055
2022-12-08T04:48:56.168Z,946.9492188
2022-12-08T04:49:56.722Z,946.9604492
2022-12-08T04:50:57.323Z,946.9388428
2022-12-08T04:51:58.026Z,946.9299316
2022-12-08T04:52:58.743Z,946.9244385
2022-12-08T04:54:00.313Z,946.9115601
2022-12-08T04:55:00.849Z,946.8422852
2022-12-08T04:56:32.039Z,946.8225098
2022-12-08T04:57:33.476Z,946.7851563
2022-12-08T04:58:34.134Z,946.8010864
2022-12-08T04:59:35.677Z,946.7572632
2022-12-08T05:00:36.218Z,946.755127
2022-12-08T05:01:36.979Z,946.7348633
2022-12-08T05:02:37.605Z,946.6905518
2022-12-08T05:03:38.114Z,946.767334
2022-12-08T05:04:39.642Z,946.7653198
2022-12-08T05:05:40.121Z,946.7667236
2022-12-08T05:06:40.747Z,946.7537231
2022-12-08T05:07:41.465Z,946.7831421
2022-12-08T05:08:42.004Z,946.7312622
2022-12-08T05:09:42.703Z,946.7979736
2022-12-08T05:10:43.417Z,946.7160645
2022-12-08T05:11:48.549Z,946.7245483
2022-12-08T05:12:44.558Z,946.7335815
2022-12-08T05:13:45.195Z,946.772522
2022-12-08T05:14:46.494Z,946.7659912
2022-12-08T05:15:47.151Z,946.7762451
2022-12-08T05:16:47.865Z,946.7959595
2022-12-08T05:17:48.537Z,946.7663574
2022-12-08T05:18:49.332Z,946.7764893
2022-12-08T05:19:50.133Z,946.7578125
2022-12-08T05:20:50.855Z,946.723877
2022-12-08T05:21:51.491Z,946.737793
2022-12-08T05:22:52.473Z,946.7565918
2022-12-08T05:23:54.148Z,946.6977539
2022-12-08T05:24:55.497Z,946.7003174
2022-12-08T05:25:56.140Z,946.7121582
2022-12-08T05:26:56.778Z,946.6827393
2022-12-08T05:28:17.740Z,946.7045288
2022-12-08T05:28:58.000Z,946.6773682
2022-12-08T05:29:59.475Z,946.6906128
2022-12-08T05:31:00.095Z,946.6965332
2022-12-08T05:32:01.220Z,946.6992188
2022-12-08T05:33:32.366Z,946.7216187
2022-12-08T05:34:33.972Z,946.7385864
2022-12-08T05:35:34.657Z,946.7293701
2022-12-08T05:36:35.297Z,946.7509155
2022-12-08T05:37:35.864Z,946.7781982
2022-12-08T05:38:36.469Z,946.7459106
2022-12-08T05:39:37.057Z,946.6760254
2022-12-08T05:40:37.663Z,946.6808472
2022-12-08T05:41:38.187Z,946.6552124
2022-12-08T05:42:38.831Z,946.6488037
2022-12-08T05:43:40.132Z,946.6520386
2022-12-08T05:44:41.609Z,946.6582642
2022-12-08T05:45:42.243Z,946.654541
2022-12-08T05:46:42.787Z,946.5982666
2022-12-08T05:47:43.415Z,946.6102295
2022-12-08T05:48:44.024Z,946.6130981
2022-12-08T05:49:44.690Z,946.625
2022-12-08T05:50:45.284Z,946.6168823
2022-12-08T05:51:45.873Z,946.6426392
2022-12-08T05:52:46.490Z,946.6394043
2022-12-08T05:53:47.155Z,946.6531372
2022-12-08T05:54:48.546Z,946.6408691
2022-12-08T05:55:49.336Z,946.6618652
2022-12-08T05:56:49.909Z,946.6762695
2022-12-08T05:57:50.587Z,946.7109375
2022-12-08T05:58:51.299Z,946.6906128
2022-12-08T05:59:52.654Z,946.6738892
2022-12-08T06:00:53.453Z,946.6802979
2022-12-08T06:01:54.141Z,946.6590576
2022-12-08T06:02:55.545Z,946.7199707
2022-12-08T06:03:56.021Z,946.7017212
2022-12-08T06:04:57.520Z,946.711853
2022-12-08T06:05:58.196Z,946.7214355
2022-12-08T06:06:58.870Z,946.7341309
2022-12-08T06:07:59.609Z,946.703125
2022-12-08T06:09:00.714Z,946.71875
2022-12-08T06:10:31.767Z,946.744873
2022-12-08T06:11:32.523Z,946.7603149
2022-12-08T06:12:33.222Z,946.7661133
2022-12-08T06:13:33.974Z,946.7597046
2022-12-08T06:14:35.625Z,946.7803955
2022-12-08T06:15:36.262Z,946.7666626
2022-12-08T06:16:37.045Z,946.7556152
2022-12-08T06:17:37.596Z,946.7112427
2022-12-08T06:18:38.233Z,946.71875
2022-12-08T06:19:38.835Z,946.7557983
2022-12-08T06:20:39.473Z,946.7104492
2022-12-08T06:21:40.265Z,946.7126465
2022-12-08T06:22:40.994Z,946.7683716
2022-12-08T06:23:41.605Z,946.7341309
2022-12-08T06:24:43.143Z,946.7857056
2022-12-08T06:25:43.777Z,946.7664185
2022-12-08T06:26:44.401Z,946.78125
2022-12-08T06:27:45.060Z,946.7611694
2022-12-08T06:28:46.628Z,946.7637329
2022-12-08T06:29:47.305Z,946.7628784
2022-12-08T06:30:47.969Z,946.751709
2022-12-08T06:31:48.744Z,946.7531128
2022-12-08T06:32:49.160Z,946.7754517
2022-12-08T06:33:49.796Z,946.7625122
2022-12-08T06:34:51.173Z,946.7619019
2022-12-08T06:35:51.926Z,946.7562256
2022-12-08T06:36:52.701Z,946.7662354
2022-12-08T06:37:53.252Z,946.763916
2022-12-08T06:38:53.931Z,946.717041
2022-12-08T06:39:54.610Z,946.7335815
2022-12-08T06:40:55.376Z,946.7446899
2022-12-08T06:41:56.053Z,946.7029419
2022-12-08T06:42:56.635Z,946.7259521
2022-12-08T06:43:57.306Z,946.6939087
2022-12-08T06:44:58.569Z,946.727478
2022-12-08T06:45:59.376Z,946.7136841
2022-12-08T06:47:00.371Z,946.6912231
2022-12-08T06:48:31.326Z,946.7526855
2022-12-08T06:49:31.929Z,946.7661133
2022-12-08T06:50:32.624Z,946.7484131
2022-12-08T06:51:33.217Z,946.7821655
2022-12-08T06:52:37.717Z,946.7527466
2022-12-08T06:53:35.469Z,946.767334
2022-12-08T06:54:36.679Z,946.7490845
2022-12-08T06:55:59.123Z,946.7668457
2022-12-08T06:56:37.974Z,946.7860718
2022-12-08T06:57:38.638Z,946.8164063
2022-12-08T06:58:39.216Z,946.8218994
2022-12-08T06:59:40.416Z,946.8218994
2022-12-08T07:00:41.971Z,946.8443604
2022-12-08T07:01:42.758Z,946.7885742
2022-12-08T07:02:43.390Z,946.8103027
2022-12-08T07:03:43.958Z,946.8043823
2022-12-08T07:04:45.187Z,946.8074951
2022-12-08T07:05:45.854Z,946.8656006
2022-12-08T07:06:46.537Z,946.7892456
2022-12-08T07:07:47.442Z,946.8222656
2022-12-08T07:08:47.899Z,946.8457642
2022-12-08T07:09:48.530Z,946.8040771
2022-12-08T07:10:49.163Z,946.7971191
2022-12-08T07:11:49.681Z,946.7703857
2022-12-08T07:12:50.405Z,946.7938843
2022-12-08T07:13:51.033Z,946.7672119
2022-12-08T07:14:52.440Z,946.77948
2022-12-08T07:15:53.067Z,946.737793
2022-12-08T07:16:53.645Z,946.7762451
2022-12-08T07:17:59.580Z,946.7352905
2022-12-08T07:18:54.968Z,946.8031006
2022-12-08T07:19:55.669Z,946.7987671
2022-12-08T07:20:56.286Z,946.8192139
2022-12-08T07:21:56.874Z,946.8101807
2022-12-08T07:22:57.573Z,946.8517456
2022-12-08T07:23:58.233Z,946.8806152
2022-12-08T07:24:59.661Z,946.8920288
2022-12-08T07:26:30.665Z,946.8608398
2022-12-08T07:27:31.364Z,946.8389893
2022-12-08T07:28:32.014Z,946.8084106
2022-12-08T07:29:33.150Z,946.7838135
2022-12-08T07:30:34.013Z,946.7892456
2022-12-08T07:31:34.658Z,946.7982788
2022-12-08T07:32:35.271Z,946.8078003
2022-12-08T07:33:36.007Z,946.814209
2022-12-08T07:34:37.123Z,946.8121948
2022-12-08T07:35:37.814Z,946.7922363
2022-12-08T07:36:39.609Z,946.8392334
2022-12-08T07:37:40.340Z,946.8027954
2022-12-08T07:38:41.091Z,946.8284302
2022-12-08T07:39:41.735Z,946.8721924
2022-12-08T07:40:42.399Z,946.836731
2022-12-08T07:41:43.087Z,946.78125
2022-12-08T07:42:43.805Z,946.828125
2022-12-08T07:43:44.639Z,946.8016968
2022-12-08T07:44:46.118Z,946.7935791
2022-12-08T07:45:46.862Z,946.742981
2022-12-08T07:46:47.469Z,946.8267212
2022-12-08T07:47:48.083Z,946.7529907
2022-12-08T07:48:48.784Z,946.7490845
2022-12-08T07:49:50.206Z,946.7626343
2022-12-08T07:50:50.966Z,946.7541504
2022-12-08T07:51:51.508Z,946.7396851
2022-12-08T07:52:52.160Z,946.7503052
2022-12-08T07:53:54.092Z,946.756897
2022-12-08T07:54:54.632Z,946.7249756
2022-12-08T07:55:55.248Z,946.6967163
2022-12-08T07:56:55.902Z,946.6919556
2022-12-08T07:57:56.430Z,946.7335815
2022-12-08T07:58:57.133Z,946.7244263
2022-12-08T07:59:58.660Z,946.6651611
2022-12-08T08:01:30.028Z,946.6749878
2022-12-08T08:02:30.559Z,946.6903076
2022-12-08T08:03:31.059Z,946.6871948
2022-12-08T08:04:31.787Z,946.631897
2022-12-08T08:05:32.971Z,946.6676636
2022-12-08T08:06:33.510Z,946.6447144
2022-12-08T08:07:34.104Z,946.6400757
2022-12-08T08:08:34.753Z,946.6095581
2022-12-08T08:09:36.227Z,946.6231079
2022-12-08T08:10:36.668Z,946.6571655
2022-12-08T08:11:37.262Z,946.6091309
2022-12-08T08:12:37.883Z,946.6140137
2022-12-08T08:13:38.411Z,946.6317139
2022-12-08T08:14:39.149Z,946.6120605
2022-12-08T08:15:40.491Z,946.5822144
2022-12-08T08:16:41.151Z,946.5645142
2022-12-08T08:17:41.694Z,946.5731201
2022-12-08T08:18:42.118Z,946.5418091
2022-12-08T08:19:42.850Z,946.5396729
2022-12-08T08:20:43.227Z,946.5058594
2022-12-08T08:21:45.948Z,946.5507813
2022-12-08T08:22:44.463Z,946.5181274
2022-12-08T08:23:45.030Z,946.5245361
2022-12-08T08:24:45.847Z,946.5229492
2022-12-08T08:25:46.897Z,946.5256348
2022-12-08T08:26:47.510Z,946.5470581
2022-12-08T08:27:48.107Z,946.522583
2022-12-08T08:28:48.662Z,946.5413818
2022-12-08T08:29:49.302Z,946.5522461
2022-12-08T08:30:50.614Z,946.5518188
2022-12-08T08:31:50.962Z,946.5262451
2022-12-08T08:32:51.497Z,946.5412598
2022-12-08T08:33:52.056Z,946.5477905
2022-12-08T08:34:52.895Z,946.5169678
2022-12-08T08:35:54.125Z,946.5533447
2022-12-08T08:36:54.694Z,946.4951782
2022-12-08T08:37:55.234Z,946.5237427
2022-12-08T08:38:55.858Z,946.5217285
2022-12-08T08:39:56.470Z,946.4776611
2022-12-08T08:40:56.932Z,946.4332275
2022-12-08T08:41:57.522Z,946.3995361
2022-12-08T08:42:58.123Z,946.430603
2022-12-08T08:44:30.139Z,946.3878784
2022-12-08T08:45:31.611Z,946.3638916
2022-12-08T08:46:32.350Z,946.3925781
2022-12-08T08:47:32.888Z,946.4000244
2022-12-08T08:48:33.578Z,946.3984375
2022-12-08T08:49:34.285Z,946.4143677
2022-12-08T08:50:37.587Z,946.4102173
2022-12-08T08:51:35.601Z,946.4159546
2022-12-08T08:52:36.150Z,946.4134521
2022-12-08T08:53:36.744Z,946.4182739
2022-12-08T08:54:37.292Z,946.4246826
2022-12-08T08:55:38.685Z,946.4273682
2022-12-08T08:56:39.352Z,946.4188232
2022-12-08T08:57:40.018Z,946.4628906
2022-12-08T08:58:40.585Z,946.4495239
2022-12-08T08:59:41.205Z,946.44104
2022-12-08T09:00:41.826Z,946.4202881
2022-12-08T09:01:42.472Z,946.4678345
2022-12-08T09:02:43.026Z,946.4034424
2022-12-08T09:03:43.691Z,946.4156494
2022-12-08T09:04:44.443Z,946.3986206
2022-12-08T09:05:45.040Z,946.3634644
2022-12-08T09:06:45.592Z,946.3635864
2022-12-08T09:07:46.219Z,946.3359375
2022-12-08T09:08:46.769Z,946.3376465
2022-12-08T09:09:47.307Z,946.2579956
2022-12-08T09:10:47.996Z,946.2966919
2022-12-08T09:11:48.597Z,946.3287354
2022-12-08T09:12:49.202Z,946.3108521
2022-12-08T09:13:49.802Z,946.2796021
2022-12-08T09:14:50.373Z,946.289917
2022-12-08T09:15:52.129Z,946.2728271
2022-12-08T09:16:52.556Z,946.2675781
2022-12-08T09:17:53.124Z,946.2704468
2022-12-08T09:18:53.696Z,946.2892456
2022-12-08T09:19:54.273Z,946.3114014
2022-12-08T09:20:54.874Z,946.2803955
2022-12-08T09:21:56.131Z,946.309082
2022-12-08T09:22:56.816Z,946.2796021
2022-12-08T09:23:57.431Z,946.3049316
2022-12-08T09:24:58.515Z,946.2631226
2022-12-08T09:26:30.357Z,946.3353882
2022-12-08T09:27:30.947Z,946.310791
2022-12-08T09:28:31.621Z,946.324707
2022-12-08T09:29:36.016Z,946.2979736
2022-12-08T09:30:32.806Z,946.2788086
2022-12-08T09:31:34.125Z,946.338623
2022-12-08T09:32:34.587Z,946.3088379
2022-12-08T09:33:35.189Z,946.3093872
2022-12-08T09:34:35.744Z,946.3080444
2022-12-08T09:35:37.135Z,946.255127
2022-12-08T09:36:37.755Z,946.2348633
2022-12-08T09:37:38.320Z,946.2324829
2022-12-08T09:38:38.874Z,946.1854858
2022-12-08T09:39:39.459Z,946.2079468
2022-12-08T09:40:40.148Z,946.201416
2022-12-08T09:41:46.385Z,946.1890869
2022-12-08T09:42:41.315Z,946.1606445
2022-12-08T09:43:41.930Z,946.2112427
2022-12-08T09:44:42.490Z,946.1782837
2022-12-08T09:45:43.936Z,946.1670532
2022-12-08T09:46:44.544Z,946.1912231
2022-12-08T09:47:45.075Z,946.1995239
2022-12-08T09:48:45.607Z,946.2129517
2022-12-08T09:49:47.104Z,946.1838989
2022-12-08T09:50:47.718Z,946.1791992
2022-12-08T09:51:48.260Z,946.1795044
2022-12-08T09:52:48.772Z,946.1268921
2022-12-08T09:53:49.356Z,946.1403198
2022-12-08T09:54:50.629Z,946.1140137
2022-12-08T09:55:52.109Z,946.0945435
2022-12-08T09:56:53.001Z,946.0901489
2022-12-08T09:57:56.476Z,946.0882568
2022-12-08T09:58:54.193Z,946.0527954
2022-12-08T09:59:54.772Z,946.0337524
2022-12-08T10:00:56.087Z,945.9897461
2022-12-08T10:01:56.770Z,945.9473267
2022-12-08T10:02:57.307Z,945.9643555
2022-12-08T10:04:28.513Z,945.9152832
2022-12-08T10:05:29.055Z,945.8878174
2022-12-08T10:06:30.375Z,945.8842163
2022-12-08T10:07:30.987Z,945.8812256
2022-12-08T10:08:31.731Z,945.8328247
2022-12-08T10:09:32.141Z,945.7791138
2022-12-08T10:10:32.674Z,945.8344727
2022-12-08T10:11:33.197Z,945.8410645
2022-12-08T10:12:34.564Z,945.8511963
2022-12-08T10:13:34.957Z,945.8796997
2022-12-08T10:14:35.570Z,945.8517456
2022-12-08T10:15:36.884Z,945.7965698
2022-12-08T10:16:37.491Z,945.7720337
2022-12-08T10:17:38.852Z,945.7296753
2022-12-08T10:18:39.390Z,945.6724243
2022-12-08T10:19:40.057Z,945.6786499
2022-12-08T10:20:40.654Z,945.6551514
2022-12-08T10:21:41.189Z,945.6436157
2022-12-08T10:22:44.963Z,945.6498413
2022-12-08T10:23:42.910Z,945.642395
2022-12-08T10:24:43.560Z,945.6220093
2022-12-08T10:25:44.155Z,945.579895
2022-12-08T10:26:45.382Z,945.5742188
2022-12-08T10:27:45.920Z,945.5706177
2022-12-08T10:28:46.499Z,945.557373
2022-12-08T10:29:47.074Z,945.5612793
2022-12-08T10:30:47.646Z,945.5245361
2022-12-08T10:31:49.047Z,945.5335693
2022-12-08T10:32:49.568Z,945.5273438
2022-12-08T10:33:50.098Z,945.5145264
2022-12-08T10:34:56.232Z,945.5452881
2022-12-08T10:35:51.300Z,945.5443115
2022-12-08T10:36:52.636Z,945.5545044
2022-12-08T10:37:53.257Z,945.5531006
2022-12-08T10:38:53.773Z,945.5639038
2022-12-08T10:39:55.112Z,945.5510864
2022-12-08T10:40:55.687Z,945.5392456
2022-12-08T10:41:56.344Z,945.5692139
2022-12-08T10:42:56.967Z,945.5778809
2022-12-08T10:44:27.974Z,945.5896606
2022-12-08T10:45:28.455Z,945.6370239
2022-12-08T10:46:29.702Z,945.6086426
2022-12-08T10:47:30.359Z,945.6060791
2022-12-08T10:48:31.021Z,945.6001587
2022-12-08T10:49:31.514Z,945.5820313
2022-12-08T10:50:32.062Z,945.5645142
2022-12-08T10:51:33.356Z,945.5656128
2022-12-08T10:52:34.087Z,945.5510864
2022-12-08T10:53:34.711Z,945.4381104
2022-12-08T10:54:35.361Z,945.4334106
2022-12-08T10:55:35.868Z,945.4014282
2022-12-08T10:56:37.360Z,945.3804932
2022-12-08T10:57:37.974Z,945.3709106
2022-12-08T10:58:38.644Z,945.3656006
2022-12-08T10:59:39.257Z,945.3394775
2022-12-08T11:00:39.942Z,945.3078613
2022-12-08T11:01:40.494Z,945.2583008
2022-12-08T11:02:41.940Z,945.2410889
2022-12-08T11:03:42.549Z,945.22052
2022-12-08T11:04:43.111Z,945.2713013
2022-12-08T11:05:43.653Z,945.1879883
2022-12-08T11:06:44.934Z,945.2043457